createdAt,value
2019-06-26T00:02:07.058Z,23.60
2019-06-26T00:04:35.788Z,23.60
2019-06-26T00:07:04.617Z,23.50
2019-06-26T00:09:33.325Z,23.50
2019-06-26T00:12:02.104Z,23.50
2019-06-26T00:14:30.823Z,23.50
2019-06-26T00:16:59.581Z,23.50
2019-06-26T00:19:28.235Z,23.50
2019-06-26T00:21:56.980Z,23.50
2019-06-26T00:24:25.691Z,23.50
2019-06-26T00:26:54.384Z,23.50
2019-06-26T00:29:23.073Z,23.50
2019-06-26T00:31:51.781Z,23.60
2019-06-26T00:34:20.491Z,23.60
2019-06-26T00:36:49.257Z,23.50
2019-06-26T00:39:18.035Z,23.50
2019-06-26T00:41:46.779Z,23.50
2019-06-26T00:44:15.519Z,23.50
2019-06-26T00:46:44.341Z,23.50
2019-06-26T00:49:13.137Z,23.40
2019-06-26T00:51:41.877Z,23.40
2019-06-26T00:54:10.687Z,23.40
2019-06-26T00:56:39.351Z,23.30
2019-06-26T00:59:08.017Z,23.30
2019-06-26T01:01:36.799Z,23.30
2019-06-26T01:04:07.192Z,23.10
2019-06-26T01:06:44.974Z,23.00
2019-06-26T01:09:14.855Z,22.90
2019-06-26T01:11:45.750Z,22.80
2019-06-26T01:14:14.542Z,22.70
2019-06-26T01:16:43.247Z,22.60
2019-06-26T01:19:12.041Z,22.40
2019-06-26T01:21:40.731Z,22.30
2019-06-26T01:24:09.497Z,22.20
2019-06-26T01:26:38.137Z,22.20
2019-06-26T01:29:06.845Z,22.10
2019-06-26T01:31:35.678Z,22.10
2019-06-26T01:34:04.469Z,22.00
2019-06-26T01:36:33.195Z,22.10
2019-06-26T01:39:02.046Z,22.10
2019-06-26T01:41:30.815Z,22.10
2019-06-26T01:44:13.586Z,22.20
2019-06-26T01:46:29.914Z,22.20
2019-06-26T01:48:58.699Z,22.20
2019-06-26T01:51:27.572Z,22.20
2019-06-26T01:53:56.285Z,22.20
2019-06-26T01:56:25.004Z,22.30
2019-06-26T01:58:53.725Z,22.30
2019-06-26T02:01:22.457Z,22.30
2019-06-26T02:03:51.145Z,22.30
2019-06-26T02:06:19.927Z,22.30
2019-06-26T02:09:08.089Z,22.30
2019-06-26T02:11:36.889Z,22.30
2019-06-26T02:14:05.771Z,22.30
2019-06-26T02:16:34.546Z,22.20
2019-06-26T02:19:05.043Z,22.20
2019-06-26T02:21:33.705Z,22.20
2019-06-26T02:24:02.679Z,22.20
2019-06-26T02:26:31.379Z,22.20
2019-06-26T02:29:00.123Z,22.20
2019-06-26T02:31:28.806Z,22.20
2019-06-26T02:33:57.517Z,22.20
2019-06-26T02:36:26.345Z,22.10
2019-06-26T02:38:55.120Z,22.00
2019-06-26T02:41:23.991Z,21.80
2019-06-26T02:43:52.738Z,21.70
2019-06-26T02:46:21.523Z,21.50
2019-06-26T02:48:50.309Z,21.40
2019-06-26T02:51:19.045Z,21.30
2019-06-26T02:53:47.702Z,21.20
2019-06-26T02:56:16.633Z,21.10
2019-06-26T02:58:45.320Z,21.10
2019-06-26T03:01:14.058Z,20.90
2019-06-26T03:03:42.853Z,20.90
2019-06-26T03:06:11.608Z,20.90
2019-06-26T03:08:40.345Z,20.90
2019-06-26T03:11:09.162Z,20.80
2019-06-26T03:13:37.830Z,20.70
2019-06-26T03:16:06.469Z,20.70
2019-06-26T03:18:35.927Z,20.70
2019-06-26T03:21:04.609Z,20.70
2019-06-26T03:23:33.288Z,20.70
2019-06-26T03:26:02.085Z,20.70
2019-06-26T03:28:30.797Z,20.70
2019-06-26T03:30:59.620Z,20.70
2019-06-26T03:33:28.485Z,20.80
2019-06-26T03:35:57.205Z,20.90
2019-06-26T03:38:25.857Z,20.90
2019-06-26T03:40:54.592Z,21.00
2019-06-26T03:43:23.421Z,21.10
2019-06-26T03:45:52.139Z,21.20
2019-06-26T03:48:21.278Z,21.20
2019-06-26T03:50:49.943Z,21.40
2019-06-26T03:53:18.587Z,21.50
2019-06-26T03:55:47.310Z,21.50
2019-06-26T03:58:15.989Z,21.70
2019-06-26T04:00:44.960Z,21.80
2019-06-26T04:03:13.663Z,21.90
2019-06-26T04:05:42.334Z,22.00
2019-06-26T04:08:11.081Z,22.10
2019-06-26T04:10:43.070Z,22.20
2019-06-26T04:13:10.193Z,22.30
2019-06-26T04:15:42.509Z,22.50
2019-06-26T04:18:09.867Z,22.50
2019-06-26T04:20:38.591Z,22.70
2019-06-26T04:23:07.261Z,22.80
2019-06-26T04:25:38.055Z,23.00
2019-06-26T04:28:06.573Z,23.10
2019-06-26T04:30:35.412Z,23.20
2019-06-26T04:33:04.345Z,23.40
2019-06-26T04:35:33.060Z,23.50
2019-06-26T04:38:01.729Z,23.60
2019-06-26T04:40:30.446Z,23.80
2019-06-26T04:42:59.121Z,23.80
2019-06-26T04:45:27.901Z,23.90
2019-06-26T04:47:56.619Z,23.90
2019-06-26T04:50:25.428Z,24.00
2019-06-26T04:52:54.166Z,24.10
2019-06-26T04:55:22.928Z,24.20
2019-06-26T04:57:51.631Z,24.40
2019-06-26T05:00:21.874Z,24.50
2019-06-26T05:02:50.852Z,24.70
2019-06-26T05:05:19.844Z,24.90
2019-06-26T05:07:48.601Z,25.00
2019-06-26T05:10:17.549Z,25.20
2019-06-26T05:12:46.347Z,25.40
2019-06-26T05:15:16.365Z,25.50
2019-06-26T05:17:45.084Z,25.70
2019-06-26T05:20:15.795Z,25.80
2019-06-26T05:22:44.533Z,25.90
2019-06-26T05:25:13.411Z,26.00
2019-06-26T05:27:42.089Z,26.10
2019-06-26T05:30:12.316Z,26.20
2019-06-26T05:32:41.037Z,26.40
2019-06-26T05:35:10.228Z,26.50
2019-06-26T05:37:38.985Z,26.70
2019-06-26T05:40:12.191Z,26.80
2019-06-26T05:42:41.008Z,27.00
2019-06-26T05:45:10.911Z,27.20
2019-06-26T05:47:39.612Z,27.40
2019-06-26T05:50:09.338Z,27.60
2019-06-26T05:52:41.295Z,27.80
2019-06-26T05:55:08.897Z,28.00
2019-06-26T05:57:40.853Z,28.00
2019-06-26T06:00:09.978Z,28.10
2019-06-26T06:02:38.810Z,28.20
2019-06-26T06:05:10.960Z,28.40
2019-06-26T06:07:39.690Z,28.50
2019-06-26T06:10:09.444Z,28.60
2019-06-26T06:12:38.186Z,28.80
2019-06-26T06:15:09.978Z,28.90
2019-06-26T06:17:38.772Z,29.00
2019-06-26T06:20:08.165Z,29.10
2019-06-26T06:22:37.104Z,29.20
2019-06-26T06:25:06.954Z,29.30
2019-06-26T06:27:35.835Z,29.40
2019-06-26T06:30:06.247Z,29.50
2019-06-26T06:32:35.069Z,29.60
2019-06-26T06:35:04.217Z,29.60
2019-06-26T06:37:32.954Z,29.80
2019-06-26T06:40:01.650Z,29.90
2019-06-26T06:42:30.344Z,30.00
2019-06-26T06:44:59.146Z,30.00
2019-06-26T06:47:27.861Z,30.10
2019-06-26T06:49:56.565Z,30.20
2019-06-26T06:52:25.202Z,30.20
2019-06-26T06:54:54.009Z,30.20
2019-06-26T06:57:22.964Z,30.30
2019-06-26T06:59:51.617Z,30.40
2019-06-26T07:02:20.507Z,30.40
2019-06-26T07:04:49.199Z,30.60
2019-06-26T07:07:17.854Z,30.70
2019-06-26T07:09:46.746Z,30.70
2019-06-26T07:12:15.512Z,30.80
2019-06-26T07:14:44.259Z,30.90
2019-06-26T07:17:20.723Z,31.10
2019-06-26T07:19:43.461Z,31.20
2019-06-26T07:22:12.525Z,31.40
2019-06-26T07:24:41.216Z,31.40
2019-06-26T07:27:10.050Z,31.60
2019-06-26T07:29:38.903Z,31.80
2019-06-26T07:32:07.679Z,31.90
2019-06-26T07:34:36.499Z,32.00
2019-06-26T07:37:05.280Z,32.10
2019-06-26T07:39:34.048Z,32.20
2019-06-26T07:42:02.782Z,32.40
2019-06-26T07:44:31.463Z,32.40
2019-06-26T07:47:00.518Z,32.50
2019-06-26T07:49:29.503Z,32.50
2019-06-26T07:51:58.134Z,32.60
2019-06-26T07:54:26.861Z,32.70
2019-06-26T07:56:55.531Z,32.70
2019-06-26T07:59:24.227Z,32.80
2019-06-26T08:01:52.923Z,32.90
2019-06-26T08:04:21.617Z,32.80
2019-06-26T08:06:50.454Z,33.00
2019-06-26T08:09:19.316Z,33.30
2019-06-26T08:11:48.002Z,33.50
2019-06-26T08:14:16.824Z,33.40
2019-06-26T08:16:45.661Z,33.40
2019-06-26T08:19:14.457Z,33.50
2019-06-26T08:21:46.510Z,33.60
2019-06-26T08:24:13.559Z,33.90
2019-06-26T08:26:42.262Z,34.20
2019-06-26T08:29:11.066Z,34.20
2019-06-26T08:31:39.787Z,34.30
2019-06-26T08:34:08.497Z,34.30
2019-06-26T08:36:37.235Z,34.30
2019-06-26T08:39:07.278Z,34.50
2019-06-26T08:41:36.067Z,34.40
2019-06-26T08:44:04.861Z,34.60
2019-06-26T08:46:33.719Z,34.80
2019-06-26T08:49:02.548Z,34.80
2019-06-26T08:51:31.355Z,34.80
2019-06-26T08:54:00.216Z,34.80
2019-06-26T08:56:29.094Z,34.80
2019-06-26T08:58:57.827Z,34.80
2019-06-26T09:01:26.729Z,34.90
2019-06-26T09:03:55.597Z,34.90
2019-06-26T09:06:24.571Z,35.00
2019-06-26T09:08:53.533Z,35.00
2019-06-26T09:11:22.332Z,35.20
2019-06-26T09:13:51.018Z,35.40
2019-06-26T09:16:19.879Z,35.40
2019-06-26T09:18:48.720Z,35.20
2019-06-26T09:21:17.650Z,35.50
2019-06-26T09:23:46.539Z,35.50
2019-06-26T09:26:15.454Z,35.60
2019-06-26T09:28:44.304Z,35.70
2019-06-26T09:31:13.143Z,35.70
2019-06-26T09:33:42.010Z,35.90
2019-06-26T09:36:10.858Z,36.10
2019-06-26T09:38:39.823Z,36.10
2019-06-26T09:41:08.850Z,36.10
2019-06-26T09:43:37.765Z,36.10
2019-06-26T09:46:06.792Z,36.10
2019-06-26T09:48:51.437Z,36.10
2019-06-26T09:51:06.226Z,36.10
2019-06-26T09:53:46.729Z,36.10
2019-06-26T09:56:05.641Z,36.10
2019-06-26T09:58:34.548Z,36.00
2019-06-26T10:01:03.526Z,36.20
2019-06-26T10:03:32.270Z,36.00
2019-06-26T10:06:01.088Z,36.10
2019-06-26T10:08:30.076Z,36.00
2019-06-26T10:10:58.898Z,35.90
2019-06-26T10:13:27.844Z,35.80
2019-06-26T10:16:00.327Z,35.60
2019-06-26T10:18:27.276Z,35.50
2019-06-26T10:20:56.477Z,35.30
2019-06-26T10:23:25.448Z,35.40
2019-06-26T10:25:54.424Z,35.50
2019-06-26T10:28:23.319Z,35.50
2019-06-26T10:30:52.279Z,35.40
2019-06-26T10:33:21.250Z,35.20
2019-06-26T10:35:50.136Z,35.10
2019-06-26T10:38:19.124Z,35.00
2019-06-26T10:40:48.012Z,35.10
2019-06-26T10:43:16.953Z,35.30
2019-06-26T10:45:46.014Z,35.60
2019-06-26T10:48:15.006Z,35.70
2019-06-26T10:50:51.954Z,35.90
2019-06-26T10:53:14.593Z,36.10
2019-06-26T10:55:43.500Z,36.00
2019-06-26T10:58:12.349Z,36.00
2019-06-26T11:00:41.339Z,36.10
2019-06-26T11:03:10.229Z,36.00
2019-06-26T11:05:39.013Z,36.10
2019-06-26T11:08:07.837Z,35.80
2019-06-26T11:10:36.731Z,35.80
2019-06-26T11:13:05.745Z,35.70
2019-06-26T11:15:35.245Z,35.70
2019-06-26T11:18:04.052Z,35.60
2019-06-26T11:20:33.031Z,35.60
2019-06-26T11:23:01.889Z,35.70
2019-06-26T11:25:30.703Z,35.70
2019-06-26T11:27:59.633Z,35.80
2019-06-26T11:30:28.697Z,36.00
2019-06-26T11:32:57.549Z,36.20
2019-06-26T11:35:26.382Z,36.40
2019-06-26T11:37:55.337Z,36.40
2019-06-26T11:40:24.202Z,36.60
2019-06-26T11:42:53.140Z,36.70
2019-06-26T11:45:22.325Z,36.90
2019-06-26T11:47:51.183Z,37.10
2019-06-26T11:50:20.793Z,37.20
2019-06-26T11:52:49.701Z,37.10
2019-06-26T11:55:20.163Z,37.00
2019-06-26T11:57:49.071Z,37.00
2019-06-26T12:00:20.685Z,37.00
2019-06-26T12:02:49.527Z,37.00
2019-06-26T12:05:19.068Z,37.00
2019-06-26T12:07:47.938Z,37.00
2019-06-26T12:10:17.057Z,37.10
2019-06-26T12:12:45.887Z,37.10
2019-06-26T12:15:16.448Z,36.90
2019-06-26T12:17:45.204Z,36.80
2019-06-26T12:20:19.107Z,36.70
2019-06-26T12:22:45.076Z,36.80
2019-06-26T12:25:14.401Z,36.80
2019-06-26T12:27:43.290Z,36.70
2019-06-26T12:30:12.244Z,36.70
2019-06-26T12:32:42.584Z,36.60
2019-06-26T12:35:12.357Z,36.50
2019-06-26T12:37:41.307Z,36.50
2019-06-26T12:40:10.262Z,36.60
2019-06-26T12:42:39.137Z,36.50
2019-06-26T12:45:11.295Z,36.60
2019-06-26T12:47:40.055Z,36.40
2019-06-26T12:50:10.885Z,36.50
2019-06-26T12:52:39.726Z,36.50
2019-06-26T12:55:08.542Z,36.60
2019-06-26T12:57:37.320Z,36.60
2019-06-26T13:00:08.453Z,36.70
2019-06-26T13:02:37.241Z,36.70
2019-06-26T13:05:07.010Z,36.70
2019-06-26T13:07:35.851Z,36.70
2019-06-26T13:10:07.670Z,36.70
2019-06-26T13:12:37.458Z,36.60
2019-06-26T13:15:09.586Z,36.50
2019-06-26T13:17:38.358Z,36.60
2019-06-26T13:20:10.329Z,36.50
2019-06-26T13:22:39.551Z,36.40
2019-06-26T13:25:09.657Z,36.50
2019-06-26T13:27:38.602Z,36.60
2019-06-26T13:30:08.218Z,36.70
2019-06-26T13:32:37.028Z,36.70
2019-06-26T13:35:07.673Z,36.60
2019-06-26T13:37:36.476Z,36.50
2019-06-26T13:40:09.168Z,36.50
2019-06-26T13:42:38.367Z,36.40
2019-06-26T13:45:07.966Z,36.40
2019-06-26T13:47:36.792Z,36.40
2019-06-26T13:50:09.042Z,36.40
2019-06-26T13:52:37.910Z,36.50
2019-06-26T13:55:08.158Z,36.50
2019-06-26T13:57:36.967Z,36.50
2019-06-26T14:00:07.514Z,36.40
2019-06-26T14:02:36.308Z,36.50
2019-06-26T14:05:07.249Z,36.60
2019-06-26T14:07:36.273Z,36.50
2019-06-26T14:10:08.166Z,36.50
2019-06-26T14:12:37.134Z,36.60
2019-06-26T14:15:07.466Z,36.50
2019-06-26T14:17:36.367Z,36.40
2019-06-26T14:20:10.652Z,36.50
2019-06-26T14:22:39.557Z,36.40
2019-06-26T14:25:08.919Z,36.20
2019-06-26T14:27:37.843Z,36.30
2019-06-26T14:30:10.357Z,36.40
2019-06-26T14:32:39.254Z,36.30
2019-06-26T14:35:08.570Z,36.30
2019-06-26T14:37:37.353Z,36.30
2019-06-26T14:40:08.639Z,36.40
2019-06-26T14:42:37.719Z,36.30
2019-06-26T14:45:10.429Z,36.30
2019-06-26T14:47:39.309Z,36.30
2019-06-26T14:50:08.108Z,36.30
2019-06-26T14:52:36.968Z,36.30
2019-06-26T14:55:09.157Z,36.30
2019-06-26T14:57:38.100Z,36.30
2019-06-26T15:00:08.843Z,36.20
2019-06-26T15:02:37.715Z,36.20
2019-06-26T15:05:07.945Z,36.20
2019-06-26T15:07:36.799Z,36.20
2019-06-26T15:10:07.628Z,36.20
2019-06-26T15:12:36.461Z,36.20
2019-06-26T15:15:06.407Z,36.10
2019-06-26T15:17:35.183Z,36.10
2019-06-26T15:20:05.213Z,36.10
2019-06-26T15:22:34.159Z,36.10
2019-06-26T15:25:03.268Z,36.10
2019-06-26T15:27:32.084Z,36.10
2019-06-26T15:30:00.870Z,36.10
2019-06-26T15:32:29.677Z,36.10
2019-06-26T15:34:58.532Z,36.10
2019-06-26T15:37:27.599Z,36.10
2019-06-26T15:39:56.783Z,36.00
2019-06-26T15:42:25.458Z,36.00
2019-06-26T15:44:54.140Z,36.00
2019-06-26T15:47:22.918Z,35.90
2019-06-26T15:49:51.710Z,35.90
2019-06-26T15:52:20.585Z,35.90
2019-06-26T15:54:49.379Z,35.80
2019-06-26T15:57:18.002Z,35.80
2019-06-26T15:59:46.828Z,35.70
2019-06-26T16:02:15.547Z,35.70
2019-06-26T16:04:44.389Z,35.70
2019-06-26T16:07:13.096Z,35.70
2019-06-26T16:09:41.900Z,35.60
2019-06-26T16:12:10.657Z,35.60
2019-06-26T16:14:39.427Z,35.60
2019-06-26T16:17:09.782Z,35.50
2019-06-26T16:19:38.406Z,35.50
2019-06-26T16:22:07.229Z,35.50
2019-06-26T16:24:35.870Z,35.40
2019-06-26T16:27:04.688Z,35.40
2019-06-26T16:29:33.388Z,35.30
2019-06-26T16:32:02.127Z,35.20
2019-06-26T16:34:30.792Z,35.20
2019-06-26T16:36:59.480Z,35.20
2019-06-26T16:39:28.167Z,35.20
2019-06-26T16:41:56.834Z,35.10
2019-06-26T16:44:25.555Z,35.10
2019-06-26T16:46:54.226Z,35.10
2019-06-26T16:49:22.889Z,35.00
2019-06-26T16:51:51.719Z,35.00
2019-06-26T16:54:20.404Z,34.90
2019-06-26T16:56:49.041Z,34.90
2019-06-26T16:59:17.808Z,34.90
2019-06-26T17:01:46.445Z,34.90
2019-06-26T17:04:15.114Z,34.80
2019-06-26T17:06:43.826Z,34.80
2019-06-26T17:09:12.481Z,34.80
2019-06-26T17:11:41.139Z,34.70
2019-06-26T17:14:09.893Z,34.60
2019-06-26T17:16:38.578Z,34.60
2019-06-26T17:19:07.321Z,34.50
2019-06-26T17:21:36.031Z,34.50
2019-06-26T17:24:04.828Z,34.40
2019-06-26T17:26:33.499Z,34.40
2019-06-26T17:29:02.315Z,34.30
2019-06-26T17:31:31.150Z,34.20
2019-06-26T17:34:00.189Z,34.20
2019-06-26T17:36:29.092Z,34.20
2019-06-26T17:38:57.709Z,34.10
2019-06-26T17:41:26.516Z,34.00
2019-06-26T17:43:55.195Z,34.00
2019-06-26T17:46:23.953Z,33.90
2019-06-26T17:48:52.679Z,33.80
2019-06-26T17:51:21.535Z,33.80
2019-06-26T17:53:50.220Z,33.70
2019-06-26T17:56:18.907Z,33.60
2019-06-26T17:58:47.703Z,33.50
2019-06-26T18:01:16.445Z,33.40
2019-06-26T18:03:45.195Z,33.40
2019-06-26T18:06:13.885Z,33.30
2019-06-26T18:08:42.643Z,33.20
2019-06-26T18:11:11.352Z,33.10
2019-06-26T18:13:40.157Z,33.00
2019-06-26T18:16:08.826Z,32.80
2019-06-26T18:18:37.565Z,32.70
2019-06-26T18:21:06.281Z,32.60
2019-06-26T18:23:38.466Z,32.50
2019-06-26T18:26:13.229Z,32.40
2019-06-26T18:28:35.629Z,32.30
2019-06-26T18:31:04.418Z,32.20
2019-06-26T18:33:33.143Z,32.00
2019-06-26T18:36:01.881Z,31.90
2019-06-26T18:38:30.662Z,31.80
2019-06-26T18:40:59.360Z,31.70
2019-06-26T18:43:28.110Z,31.60
2019-06-26T18:45:56.917Z,31.50
2019-06-26T18:48:25.562Z,31.50
2019-06-26T18:50:54.275Z,31.30
2019-06-26T18:53:23.044Z,31.20
2019-06-26T18:55:51.740Z,31.20
2019-06-26T18:58:20.498Z,31.10
2019-06-26T19:00:49.133Z,30.90
2019-06-26T19:03:17.875Z,30.90
2019-06-26T19:05:46.616Z,30.80
2019-06-26T19:08:15.532Z,30.70
2019-06-26T19:10:44.278Z,30.60
2019-06-26T19:13:13.097Z,30.50
2019-06-26T19:15:41.762Z,30.40
2019-06-26T19:18:10.493Z,30.30
2019-06-26T19:20:39.276Z,30.30
2019-06-26T19:23:07.939Z,30.20
2019-06-26T19:25:36.613Z,30.10
2019-06-26T19:28:05.462Z,30.10
2019-06-26T19:30:34.173Z,30.00
2019-06-26T19:33:02.880Z,29.90
2019-06-26T19:35:31.661Z,29.80
2019-06-26T19:38:00.369Z,29.70
2019-06-26T19:40:29.154Z,29.70
2019-06-26T19:42:57.849Z,29.60
2019-06-26T19:45:26.542Z,29.50
2019-06-26T19:47:55.206Z,29.50
2019-06-26T19:50:23.920Z,29.40
2019-06-26T19:52:52.572Z,29.30
2019-06-26T19:55:21.284Z,29.30
2019-06-26T19:57:50.245Z,29.30
2019-06-26T20:00:19.065Z,29.20
2019-06-26T20:02:47.790Z,29.20
2019-06-26T20:05:16.502Z,29.10
2019-06-26T20:07:45.189Z,29.10
2019-06-26T20:10:15.777Z,29.00
2019-06-26T20:12:44.504Z,29.00
2019-06-26T20:15:13.401Z,29.00
2019-06-26T20:17:42.041Z,28.90
2019-06-26T20:20:11.030Z,28.90
2019-06-26T20:22:39.802Z,28.80
2019-06-26T20:25:09.522Z,28.80
2019-06-26T20:27:38.409Z,28.70
2019-06-26T20:30:09.848Z,28.70
2019-06-26T20:32:38.404Z,28.70
2019-06-26T20:35:07.842Z,28.60
2019-06-26T20:37:36.818Z,28.50
2019-06-26T20:40:07.617Z,28.50
2019-06-26T20:42:36.458Z,28.40
2019-06-26T20:45:06.273Z,28.40
2019-06-26T20:47:35.017Z,28.40
2019-06-26T20:50:05.166Z,28.30
2019-06-26T20:52:33.838Z,28.30
2019-06-26T20:55:02.918Z,28.20
2019-06-26T20:57:31.799Z,28.10
2019-06-26T21:00:00.616Z,28.10
2019-06-26T21:02:29.296Z,28.10
2019-06-26T21:04:58.146Z,28.00
2019-06-26T21:07:26.763Z,28.00
2019-06-26T21:09:55.506Z,28.00
2019-06-26T21:12:24.274Z,28.00
2019-06-26T21:14:52.993Z,27.90
2019-06-26T21:17:24.811Z,27.90
2019-06-26T21:19:52.139Z,27.90
2019-06-26T21:22:20.785Z,27.80
2019-06-26T21:24:49.503Z,27.80
2019-06-26T21:27:18.416Z,27.80
2019-06-26T21:29:47.428Z,27.70
2019-06-26T21:32:16.143Z,27.60
2019-06-26T21:34:44.909Z,27.60
2019-06-26T21:37:13.543Z,27.50
2019-06-26T21:39:42.220Z,27.50
2019-06-26T21:42:10.986Z,27.40
2019-06-26T21:44:39.712Z,27.30
2019-06-26T21:47:08.387Z,27.30
2019-06-26T21:49:37.098Z,27.20
2019-06-26T21:52:05.812Z,27.20
2019-06-26T21:54:34.489Z,27.10
2019-06-26T21:57:03.165Z,27.10
2019-06-26T21:59:31.844Z,27.00
2019-06-26T22:02:00.715Z,27.00
2019-06-26T22:04:29.500Z,27.00
2019-06-26T22:06:58.175Z,26.90
2019-06-26T22:09:27.003Z,27.00
2019-06-26T22:11:55.751Z,26.90
2019-06-26T22:14:24.413Z,26.90
2019-06-26T22:16:53.238Z,26.90
2019-06-26T22:19:22.109Z,26.90
2019-06-26T22:21:50.836Z,26.90
2019-06-26T22:24:19.623Z,26.90
2019-06-26T22:26:48.300Z,26.80
2019-06-26T22:29:16.962Z,26.80
2019-06-26T22:31:45.698Z,26.80
2019-06-26T22:34:14.450Z,26.80
2019-06-26T22:36:51.344Z,26.70
2019-06-26T22:39:13.510Z,26.70
2019-06-26T22:41:42.270Z,26.60
2019-06-26T22:44:11.002Z,26.60
2019-06-26T22:46:39.698Z,26.60
2019-06-26T22:49:08.506Z,26.50
2019-06-26T22:51:37.295Z,26.50
2019-06-26T22:54:06.030Z,26.50
2019-06-26T22:56:34.860Z,26.40
2019-06-26T22:59:03.543Z,26.40
2019-06-26T23:01:32.191Z,26.40
2019-06-26T23:04:00.893Z,26.40
2019-06-26T23:06:29.533Z,26.30
2019-06-26T23:08:58.205Z,26.30
2019-06-26T23:11:26.966Z,26.30
2019-06-26T23:13:55.636Z,26.30
2019-06-26T23:16:24.353Z,26.30
2019-06-26T23:18:53.238Z,26.30
2019-06-26T23:21:22.064Z,26.30
2019-06-26T23:23:50.820Z,26.30
2019-06-26T23:26:24.082Z,26.30
2019-06-26T23:28:49.899Z,26.40
2019-06-26T23:31:18.583Z,26.40
2019-06-26T23:33:47.308Z,26.40
2019-06-26T23:36:15.958Z,26.40
2019-06-26T23:38:44.620Z,26.40
2019-06-26T23:41:13.377Z,26.40
2019-06-26T23:43:42.018Z,26.40
2019-06-26T23:46:10.714Z,26.40
2019-06-26T23:48:39.377Z,26.40
2019-06-26T23:51:08.067Z,26.40
2019-06-26T23:53:36.688Z,26.30
2019-06-26T23:56:05.407Z,26.30
2019-06-26T23:58:34.047Z,26.30
